createdAt,value
2018-05-02T00:01:06.241Z,7.05
2018-05-02T00:03:39.901Z,6.91
2018-05-02T00:06:13.414Z,6.77
2018-05-02T00:08:46.980Z,6.70
2018-05-02T00:11:20.660Z,6.67
2018-05-02T00:13:54.216Z,6.68
2018-05-02T00:16:27.784Z,6.71
2018-05-02T00:19:01.469Z,6.68
2018-05-02T00:21:35.262Z,6.58
2018-05-02T00:24:08.850Z,6.64
2018-05-02T00:26:42.411Z,6.71
2018-05-02T00:29:15.940Z,6.70
2018-05-02T00:31:49.563Z,6.84
2018-05-02T00:34:23.146Z,6.85
2018-05-02T00:36:56.704Z,7.16
2018-05-02T00:39:30.270Z,7.16
2018-05-02T00:42:03.794Z,7.03
2018-05-02T00:44:37.362Z,7.07
2018-05-02T00:47:11.054Z,7.05
2018-05-02T00:49:44.711Z,7.11
2018-05-02T00:52:18.275Z,7.12
2018-05-02T00:54:51.839Z,7.16
2018-05-02T00:57:25.561Z,7.12
2018-05-02T00:59:59.259Z,7.01
2018-05-02T01:02:32.962Z,6.90
2018-05-02T01:05:06.519Z,6.88
2018-05-02T01:07:40.271Z,6.77
2018-05-02T01:10:13.861Z,6.74
2018-05-02T01:12:47.459Z,6.67
2018-05-02T01:15:21.222Z,6.64
2018-05-02T01:17:54.770Z,6.54
2018-05-02T01:20:28.323Z,6.51
2018-05-02T01:23:02.114Z,6.48
2018-05-02T01:25:35.677Z,6.44
2018-05-02T01:28:09.329Z,6.39
2018-05-02T01:30:42.968Z,6.39
2018-05-02T01:33:16.669Z,6.37
2018-05-02T01:35:50.211Z,6.31
2018-05-02T01:38:23.831Z,6.32
2018-05-02T01:40:57.831Z,6.42
2018-05-02T01:43:31.324Z,6.39
2018-05-02T01:46:04.964Z,6.34
2018-05-02T01:48:38.728Z,6.33
2018-05-02T01:51:12.385Z,6.33
2018-05-02T01:53:46.011Z,6.27
2018-05-02T01:56:19.699Z,6.24
2018-05-02T01:58:53.315Z,6.22
2018-05-02T02:01:27.066Z,6.25
2018-05-02T02:04:00.596Z,6.23
2018-05-02T02:06:34.140Z,6.23
2018-05-02T02:09:07.797Z,6.19
2018-05-02T02:11:41.499Z,6.18
2018-05-02T02:14:15.222Z,6.15
2018-05-02T02:16:48.899Z,6.08
2018-05-02T02:19:22.360Z,5.93
2018-05-02T02:21:55.986Z,5.90
2018-05-02T02:24:29.620Z,5.95
2018-05-02T02:27:03.149Z,5.92
2018-05-02T02:29:36.655Z,5.94
2018-05-02T02:32:10.473Z,5.87
2018-05-02T02:34:44.160Z,5.88
2018-05-02T02:37:17.703Z,5.81
2018-05-02T02:39:51.341Z,5.81
2018-05-02T02:42:24.935Z,5.88
2018-05-02T02:44:58.801Z,5.82
2018-05-02T02:47:32.325Z,5.80
2018-05-02T02:50:05.886Z,5.75
2018-05-02T02:52:39.617Z,5.72
2018-05-02T02:55:13.232Z,5.77
2018-05-02T02:57:46.871Z,5.78
2018-05-02T03:00:20.573Z,5.76
2018-05-02T03:02:54.056Z,5.71
2018-05-02T03:05:27.652Z,5.72
2018-05-02T03:08:01.322Z,5.75
2018-05-02T03:10:34.930Z,5.79
2018-05-02T03:13:08.505Z,5.78
2018-05-02T03:15:42.105Z,5.75
2018-05-02T03:18:15.672Z,5.75
2018-05-02T03:20:49.208Z,5.75
2018-05-02T03:23:22.827Z,5.69
2018-05-02T03:25:56.440Z,5.67
2018-05-02T03:28:30.092Z,5.68
2018-05-02T03:31:03.840Z,5.67
2018-05-02T03:33:37.363Z,5.60
2018-05-02T03:36:11.120Z,5.58
2018-05-02T03:38:44.749Z,5.51
2018-05-02T03:41:18.364Z,5.60
2018-05-02T03:43:52.008Z,5.54
2018-05-02T03:46:25.614Z,5.56
2018-05-02T03:48:59.248Z,5.54
2018-05-02T03:51:32.812Z,5.51
2018-05-02T03:54:06.321Z,5.46
2018-05-02T03:56:39.900Z,5.49
2018-05-02T03:59:13.892Z,5.45
2018-05-02T04:01:59.299Z,5.46
2018-05-02T04:04:45.625Z,5.47
2018-05-02T04:07:19.416Z,5.46
2018-05-02T04:09:53.012Z,5.45
2018-05-02T04:12:26.641Z,5.42
2018-05-02T04:15:00.280Z,5.48
2018-05-02T04:17:33.920Z,5.49
2018-05-02T04:20:07.623Z,5.50
2018-05-02T04:22:41.158Z,5.54
2018-05-02T04:25:14.835Z,5.59
2018-05-02T04:27:48.496Z,5.65
2018-05-02T04:30:22.124Z,5.72
2018-05-02T04:32:55.746Z,5.75
2018-05-02T04:35:29.637Z,5.78
2018-05-02T04:38:03.288Z,5.82
2018-05-02T04:40:36.928Z,5.93
2018-05-02T04:43:10.679Z,5.96
2018-05-02T04:45:44.356Z,5.96
2018-05-02T04:48:18.047Z,6.02
2018-05-02T04:50:51.670Z,6.15
2018-05-02T04:53:25.260Z,6.19
2018-05-02T04:55:58.836Z,6.27
2018-05-02T04:58:32.482Z,6.30
2018-05-02T05:01:06.151Z,6.36
2018-05-02T05:03:39.783Z,6.39
2018-05-02T05:06:13.636Z,6.45
2018-05-02T05:08:47.200Z,6.46
2018-05-02T05:11:20.742Z,6.53
2018-05-02T05:13:54.384Z,6.57
2018-05-02T05:16:28.509Z,6.64
2018-05-02T05:19:02.165Z,6.74
2018-05-02T05:21:35.843Z,6.84
2018-05-02T05:24:09.517Z,6.88
2018-05-02T05:26:43.080Z,6.99
2018-05-02T05:29:16.687Z,7.08
2018-05-02T05:31:50.372Z,7.13
2018-05-02T05:34:23.980Z,7.22
2018-05-02T05:36:57.651Z,7.30
2018-05-02T05:39:31.195Z,7.40
2018-05-02T05:42:05.014Z,7.49
2018-05-02T05:44:38.603Z,7.59
2018-05-02T05:47:12.257Z,7.72
2018-05-02T05:49:45.847Z,7.74
2018-05-02T05:52:19.415Z,7.77
2018-05-02T05:54:53.101Z,7.80
2018-05-02T05:57:26.659Z,7.79
2018-05-02T06:00:00.277Z,7.84
2018-05-02T06:02:33.908Z,7.94
2018-05-02T06:05:07.559Z,8.08
2018-05-02T06:07:41.225Z,8.49
2018-05-02T06:10:14.755Z,8.96
2018-05-02T06:12:48.350Z,9.32
2018-05-02T06:15:21.949Z,9.74
2018-05-02T06:17:55.470Z,11.02
2018-05-02T06:20:29.770Z,12.01
2018-05-02T06:23:03.349Z,12.93
2018-05-02T06:25:36.915Z,13.49
2018-05-02T06:28:10.489Z,13.33
2018-05-02T06:30:44.046Z,13.55
2018-05-02T06:33:17.638Z,14.28
2018-05-02T06:35:51.274Z,15.09
2018-05-02T06:38:24.981Z,16.14
2018-05-02T06:40:58.575Z,15.82
2018-05-02T06:43:32.135Z,16.65
2018-05-02T06:46:05.621Z,16.62
2018-05-02T06:48:39.408Z,17.59
2018-05-02T06:51:13.061Z,16.32
2018-05-02T06:53:46.888Z,17.58
2018-05-02T06:56:20.558Z,18.43
2018-05-02T06:58:54.221Z,17.99
2018-05-02T07:01:27.784Z,17.27
2018-05-02T07:04:01.404Z,18.72
2018-05-02T07:06:35.005Z,19.75
2018-05-02T07:09:08.669Z,19.10
2018-05-02T07:11:42.251Z,19.86
2018-05-02T07:14:15.807Z,18.76
2018-05-02T07:16:49.325Z,19.39
2018-05-02T07:19:23.049Z,20.63
2018-05-02T07:21:56.563Z,21.13
2018-05-02T07:24:30.264Z,18.79
2018-05-02T07:27:03.920Z,19.55
2018-05-02T07:29:37.676Z,19.64
2018-05-02T07:32:11.409Z,18.40
2018-05-02T07:34:45.216Z,18.68
2018-05-02T07:37:18.753Z,19.26
2018-05-02T07:39:52.355Z,20.27
2018-05-02T07:42:26.004Z,20.32
2018-05-02T07:44:59.578Z,20.94
2018-05-02T07:47:33.274Z,22.20
2018-05-02T07:50:07.132Z,20.18
2018-05-02T07:52:40.748Z,20.96
2018-05-02T07:55:14.520Z,22.22
2018-05-02T07:57:48.212Z,21.69
2018-05-02T08:00:22.256Z,20.59
2018-05-02T08:02:55.918Z,20.09
2018-05-02T08:05:29.991Z,21.71
2018-05-02T08:08:03.536Z,20.94
2018-05-02T08:10:37.127Z,20.07
2018-05-02T08:13:10.865Z,19.96
2018-05-02T08:15:44.405Z,18.06
2018-05-02T08:18:18.062Z,17.23
2018-05-02T08:20:51.644Z,18.68
2018-05-02T08:23:25.228Z,17.05
2018-05-02T08:25:58.819Z,17.75
2018-05-02T08:28:32.554Z,17.45
2018-05-02T08:31:06.144Z,18.38
2018-05-02T08:33:39.660Z,17.25
2018-05-02T08:36:13.259Z,17.47
2018-05-02T08:38:47.016Z,15.87
2018-05-02T08:41:20.725Z,16.96
2018-05-02T08:43:54.240Z,17.97
2018-05-02T08:46:28.215Z,19.05
2018-05-02T08:49:01.800Z,20.30
2018-05-02T08:51:35.552Z,18.29
2018-05-02T08:54:09.279Z,17.59
2018-05-02T08:56:42.815Z,17.58
2018-05-02T08:59:16.496Z,17.82
2018-05-02T09:01:50.696Z,19.84
2018-05-02T09:04:24.192Z,21.91
2018-05-02T09:06:57.924Z,18.45
2018-05-02T09:09:31.404Z,19.76
2018-05-02T09:12:04.960Z,19.61
2018-05-02T09:14:38.525Z,20.51
2018-05-02T09:17:12.242Z,20.14
2018-05-02T09:19:45.910Z,20.48
2018-05-02T09:22:19.530Z,20.80
2018-05-02T09:24:53.293Z,20.21
2018-05-02T09:27:27.290Z,20.61
2018-05-02T09:30:00.884Z,20.90
2018-05-02T09:32:34.793Z,19.28
2018-05-02T09:35:08.480Z,22.59
2018-05-02T09:37:42.473Z,21.49
2018-05-02T09:40:16.140Z,22.87
2018-05-02T09:42:49.944Z,25.44
2018-05-02T09:45:23.507Z,24.02
2018-05-02T09:47:57.194Z,23.05
2018-05-02T09:50:30.764Z,20.55
2018-05-02T09:53:04.334Z,23.30
2018-05-02T09:55:37.860Z,21.30
2018-05-02T09:58:11.603Z,19.75
2018-05-02T10:00:45.224Z,21.36
2018-05-02T10:03:19.056Z,18.70
2018-05-02T10:05:52.601Z,20.36
2018-05-02T10:08:26.195Z,21.46
2018-05-02T10:10:59.755Z,23.63
2018-05-02T10:13:33.384Z,26.23
2018-05-02T10:16:06.892Z,22.85
2018-05-02T10:18:40.448Z,23.78
2018-05-02T10:21:14.149Z,24.43
2018-05-02T10:23:47.749Z,22.22
2018-05-02T10:26:21.645Z,22.87
2018-05-02T10:28:55.262Z,22.17
2018-05-02T10:31:28.816Z,24.36
2018-05-02T10:34:02.607Z,22.29
2018-05-02T10:36:36.242Z,23.27
2018-05-02T10:39:09.724Z,24.53
2018-05-02T10:41:43.406Z,24.19
2018-05-02T10:44:17.300Z,24.29
2018-05-02T10:46:50.784Z,24.88
2018-05-02T10:49:24.412Z,25.98
2018-05-02T10:51:58.038Z,22.61
2018-05-02T10:54:31.656Z,22.90
2018-05-02T10:57:05.396Z,25.43
2018-05-02T10:59:38.947Z,25.10
2018-05-02T11:02:12.528Z,23.00
2018-05-02T11:04:46.251Z,24.94
2018-05-02T11:07:19.992Z,25.01
2018-05-02T11:09:53.695Z,25.74
2018-05-02T11:12:27.292Z,24.61
2018-05-02T11:15:00.978Z,24.99
2018-05-02T11:17:34.564Z,23.68
2018-05-02T11:20:08.170Z,25.16
2018-05-02T11:22:41.780Z,23.17
2018-05-02T11:25:15.418Z,22.54
2018-05-02T11:27:48.955Z,22.68
2018-05-02T11:30:22.761Z,22.91
2018-05-02T11:32:56.425Z,24.13
2018-05-02T11:35:30.575Z,21.41
2018-05-02T11:38:04.190Z,22.19
2018-05-02T11:40:37.749Z,20.04
2018-05-02T11:43:11.419Z,19.80
2018-05-02T11:45:44.995Z,18.00
2018-05-02T11:48:18.598Z,17.68
2018-05-02T11:50:52.171Z,19.61
2018-05-02T11:53:25.820Z,19.03
2018-05-02T11:55:59.400Z,18.66
2018-05-02T11:58:32.960Z,18.76
2018-05-02T12:01:06.984Z,19.06
2018-05-02T12:03:40.690Z,17.91
2018-05-02T12:06:14.286Z,18.48
2018-05-02T12:08:48.082Z,18.88
2018-05-02T12:11:21.668Z,19.18
2018-05-02T12:13:55.295Z,17.64
2018-05-02T12:16:28.935Z,18.17
2018-05-02T12:19:02.509Z,18.21
2018-05-02T12:21:36.305Z,17.50
2018-05-02T12:24:10.092Z,18.42
2018-05-02T12:26:43.710Z,17.82
2018-05-02T12:29:17.255Z,18.12
2018-05-02T12:31:50.939Z,18.23
2018-05-02T12:34:24.611Z,18.34
2018-05-02T12:36:58.303Z,18.54
2018-05-02T12:39:31.903Z,17.59
2018-05-02T12:42:05.511Z,18.12
2018-05-02T12:44:39.045Z,18.27
2018-05-02T12:47:15.944Z,18.44
2018-05-02T12:49:49.476Z,18.07
2018-05-02T12:52:23.059Z,17.79
2018-05-02T12:54:56.796Z,18.36
2018-05-02T12:57:30.390Z,18.76
2018-05-02T13:00:03.964Z,18.84
2018-05-02T13:02:37.595Z,18.71
2018-05-02T13:05:11.540Z,18.81
2018-05-02T13:07:45.652Z,18.92
2018-05-02T13:10:19.310Z,18.36
2018-05-02T13:12:52.860Z,18.76
2018-05-02T13:15:26.578Z,19.37
2018-05-02T13:18:00.334Z,18.53
2018-05-02T13:20:34.007Z,18.75
2018-05-02T13:23:07.677Z,18.84
2018-05-02T13:25:41.426Z,19.10
2018-05-02T13:28:14.960Z,18.70
2018-05-02T13:30:48.759Z,18.72
2018-05-02T13:33:22.590Z,18.42
2018-05-02T13:35:56.300Z,17.71
2018-05-02T13:38:29.938Z,18.32
2018-05-02T13:41:03.716Z,18.18
2018-05-02T13:43:37.354Z,18.43
2018-05-02T13:46:11.065Z,18.54
2018-05-02T13:48:44.695Z,18.67
2018-05-02T13:51:18.443Z,18.20
2018-05-02T13:53:52.060Z,18.52
2018-05-02T13:56:25.792Z,18.42
2018-05-02T13:58:59.311Z,18.29
2018-05-02T14:01:32.997Z,17.64
2018-05-02T14:04:06.580Z,18.37
2018-05-02T14:06:40.135Z,18.55
2018-05-02T14:09:13.683Z,18.02
2018-05-02T14:11:47.193Z,18.77
2018-05-02T14:14:20.828Z,18.74
2018-05-02T14:16:54.383Z,18.43
2018-05-02T14:19:28.299Z,18.30
2018-05-02T14:22:02.163Z,18.71
2018-05-02T14:24:35.764Z,18.73
2018-05-02T14:27:09.492Z,18.76
2018-05-02T14:29:43.248Z,18.56
2018-05-02T14:32:16.822Z,18.56
2018-05-02T14:34:50.446Z,18.95
2018-05-02T14:37:24.046Z,19.28
2018-05-02T14:39:57.718Z,19.60
2018-05-02T14:42:31.429Z,20.08
2018-05-02T14:45:04.916Z,20.12
2018-05-02T14:47:38.562Z,20.41
2018-05-02T14:50:12.222Z,19.70
2018-05-02T14:52:45.911Z,19.42
2018-05-02T14:55:19.495Z,19.11
2018-05-02T14:57:53.158Z,19.00
2018-05-02T15:00:26.808Z,19.23
2018-05-02T15:03:00.662Z,19.26
2018-05-02T15:05:34.194Z,19.35
2018-05-02T15:08:07.760Z,19.33
2018-05-02T15:10:41.411Z,19.01
2018-05-02T15:13:15.115Z,19.72
2018-05-02T15:15:48.786Z,19.50
2018-05-02T15:18:22.360Z,19.16
2018-05-02T15:20:56.111Z,19.84
2018-05-02T15:23:29.675Z,19.66
2018-05-02T15:26:03.455Z,19.56
2018-05-02T15:28:37.124Z,19.78
2018-05-02T15:31:10.944Z,19.62
2018-05-02T15:33:44.530Z,20.14
2018-05-02T15:36:18.118Z,19.88
2018-05-02T15:38:51.807Z,19.66
2018-05-02T15:41:25.347Z,19.71
2018-05-02T15:43:59.035Z,19.33
2018-05-02T15:46:32.760Z,19.38
2018-05-02T15:49:06.595Z,19.17
2018-05-02T15:51:40.182Z,19.25
2018-05-02T15:54:13.904Z,18.79
2018-05-02T15:56:47.395Z,18.73
2018-05-02T15:59:20.964Z,18.61
2018-05-02T16:01:54.514Z,18.53
2018-05-02T16:04:28.080Z,18.19
2018-05-02T16:07:01.645Z,18.19
2018-05-02T16:09:35.393Z,18.19
2018-05-02T16:12:09.303Z,18.00
2018-05-02T16:14:43.108Z,18.05
2018-05-02T16:17:17.087Z,17.92
2018-05-02T16:19:51.885Z,17.77
2018-05-02T16:22:25.482Z,17.48
2018-05-02T16:24:59.067Z,17.49
2018-05-02T16:27:32.938Z,17.43
2018-05-02T16:30:06.769Z,17.25
2018-05-02T16:32:40.400Z,17.26
2018-05-02T16:35:14.157Z,17.11
2018-05-02T16:37:48.016Z,17.07
2018-05-02T16:40:21.637Z,17.00
2018-05-02T16:42:55.262Z,16.93
2018-05-02T16:45:29.057Z,16.91
2018-05-02T16:48:02.696Z,16.71
2018-05-02T16:50:36.355Z,16.75
2018-05-02T16:53:10.137Z,16.79
2018-05-02T16:55:43.761Z,16.60
2018-05-02T16:58:17.432Z,16.75
2018-05-02T17:00:51.107Z,16.77
2018-05-02T17:03:24.759Z,16.81
2018-05-02T17:05:58.549Z,16.73
2018-05-02T17:08:32.258Z,16.55
2018-05-02T17:11:06.254Z,16.49
2018-05-02T17:13:40.052Z,16.43
2018-05-02T17:16:13.732Z,16.38
2018-05-02T17:18:47.436Z,16.41
2018-05-02T17:21:20.993Z,16.33
2018-05-02T17:23:54.777Z,16.31
2018-05-02T17:26:28.493Z,16.25
2018-05-02T17:29:02.248Z,16.20
2018-05-02T17:31:35.845Z,16.12
2018-05-02T17:34:09.659Z,16.13
2018-05-02T17:36:43.177Z,16.06
2018-05-02T17:39:17.019Z,15.97
2018-05-02T17:41:50.588Z,15.98
2018-05-02T17:44:24.292Z,15.91
2018-05-02T17:46:58.003Z,15.86
2018-05-02T17:49:31.572Z,15.71
2018-05-02T17:52:05.259Z,15.66
2018-05-02T17:54:38.966Z,15.65
2018-05-02T17:57:12.766Z,15.58
2018-05-02T17:59:46.394Z,15.55
2018-05-02T18:02:19.920Z,15.56
2018-05-02T18:04:53.516Z,15.49
2018-05-02T18:07:27.533Z,15.47
2018-05-02T18:10:01.091Z,15.44
2018-05-02T18:12:34.841Z,15.33
2018-05-02T18:15:08.421Z,15.32
2018-05-02T18:17:42.120Z,15.22
2018-05-02T18:20:15.887Z,15.23
2018-05-02T18:22:49.696Z,15.14
2018-05-02T18:25:23.418Z,15.14
2018-05-02T18:27:57.022Z,15.11
2018-05-02T18:30:30.718Z,15.08
2018-05-02T18:33:04.244Z,14.92
2018-05-02T18:35:37.807Z,15.00
2018-05-02T18:38:11.437Z,14.85
2018-05-02T18:40:45.262Z,14.86
2018-05-02T18:43:19.267Z,14.87
2018-05-02T18:45:52.833Z,14.71
2018-05-02T18:48:26.396Z,14.75
2018-05-02T18:51:00.125Z,14.74
2018-05-02T18:53:33.754Z,14.61
2018-05-02T18:56:07.482Z,14.59
2018-05-02T18:58:41.383Z,14.46
2018-05-02T19:01:15.114Z,14.36
2018-05-02T19:03:49.173Z,14.34
2018-05-02T19:06:22.857Z,14.35
2018-05-02T19:08:56.518Z,14.28
2018-05-02T19:11:30.313Z,14.22
2018-05-02T19:14:04.090Z,14.27
2018-05-02T19:16:37.734Z,14.14
2018-05-02T19:19:17.047Z,14.07
2018-05-02T19:21:50.839Z,14.09
2018-05-02T19:24:24.605Z,14.06
2018-05-02T19:26:58.716Z,14.09
2018-05-02T19:29:32.520Z,13.91
2018-05-02T19:32:12.090Z,13.94
2018-05-02T19:34:45.825Z,13.90
2018-05-02T19:37:19.463Z,13.95
2018-05-02T19:39:58.936Z,13.88
2018-05-02T19:42:38.408Z,13.83
2018-05-02T19:45:12.220Z,13.83
2018-05-02T19:47:45.966Z,13.75
2018-05-02T19:50:19.802Z,13.70
2018-05-02T19:52:53.645Z,13.70
2018-05-02T19:55:27.418Z,13.71
2018-05-02T19:58:01.061Z,13.60
2018-05-02T20:00:40.840Z,13.66
2018-05-02T20:03:14.394Z,13.62
2018-05-02T20:05:48.086Z,13.57
2018-05-02T20:08:27.399Z,13.50
2018-05-02T20:11:06.804Z,13.43
2018-05-02T20:13:46.168Z,13.43
2018-05-02T20:16:19.905Z,13.50
2018-05-02T20:18:53.642Z,13.54
2018-05-02T20:21:27.253Z,13.51
2018-05-02T20:24:01.278Z,13.43
2018-05-02T20:26:34.880Z,13.40
2018-05-02T20:29:08.646Z,13.38
2018-05-02T20:31:42.391Z,13.41
2018-05-02T20:34:16.165Z,13.26
2018-05-02T20:36:50.001Z,13.30
2018-05-02T20:39:24.012Z,13.30
2018-05-02T20:41:57.828Z,13.22
2018-05-02T20:44:31.696Z,13.22
2018-05-02T20:47:11.699Z,13.19
2018-05-02T20:49:45.415Z,13.20
2018-05-02T20:52:19.611Z,13.21
2018-05-02T20:54:53.515Z,13.11
2018-05-02T20:57:27.213Z,13.00
2018-05-02T21:00:01.023Z,12.90
2018-05-02T21:02:34.788Z,12.87
2018-05-02T21:05:08.545Z,12.84
2018-05-02T21:07:42.202Z,12.74
2018-05-02T21:10:15.893Z,12.68
2018-05-02T21:12:49.711Z,12.58
2018-05-02T21:15:23.286Z,12.45
2018-05-02T21:17:56.921Z,12.53
2018-05-02T21:20:30.538Z,12.52
2018-05-02T21:23:04.306Z,12.46
2018-05-02T21:25:39.723Z,12.57
2018-05-02T21:28:13.423Z,12.41
2018-05-02T21:30:47.262Z,12.34
2018-05-02T21:33:20.824Z,12.35
2018-05-02T21:35:54.488Z,12.33
2018-05-02T21:38:28.139Z,12.32
2018-05-02T21:41:01.891Z,12.27
2018-05-02T21:43:35.591Z,12.21
2018-05-02T21:46:09.250Z,12.19
2018-05-02T21:48:43.007Z,12.14
2018-05-02T21:51:16.778Z,12.09
2018-05-02T21:53:50.578Z,12.14
2018-05-02T21:56:24.668Z,12.18
2018-05-02T21:58:58.491Z,12.09
2018-05-02T22:01:32.313Z,12.02
2018-05-02T22:04:06.025Z,12.01
2018-05-02T22:06:39.747Z,12.02
2018-05-02T22:09:13.607Z,12.00
2018-05-02T22:11:47.276Z,11.93
2018-05-02T22:14:21.196Z,11.92
2018-05-02T22:16:55.051Z,11.91
2018-05-02T22:19:28.804Z,11.92
2018-05-02T22:22:02.637Z,11.92
2018-05-02T22:24:36.646Z,11.85
2018-05-02T22:27:10.407Z,11.90
2018-05-02T22:29:44.149Z,11.83
2018-05-02T22:32:17.774Z,11.89
2018-05-02T22:34:51.484Z,11.81
2018-05-02T22:37:29.153Z,11.83
2018-05-02T22:40:04.006Z,11.77
2018-05-02T22:42:37.838Z,11.76
2018-05-02T22:45:14.672Z,11.68
2018-05-02T22:47:49.626Z,11.72
2018-05-02T22:50:28.382Z,11.74
2018-05-02T22:53:04.222Z,11.65
2018-05-02T22:55:39.234Z,11.62
2018-05-02T22:58:13.019Z,11.65
2018-05-02T23:06:06.269Z,11.44
2018-05-02T23:08:40.342Z,11.38
2018-05-02T23:11:14.399Z,11.34
2018-05-02T23:13:48.234Z,11.31
2018-05-02T23:16:22.641Z,11.33
2018-05-02T23:19:01.557Z,11.38
2018-05-02T23:21:36.488Z,11.30
2018-05-02T23:24:10.701Z,11.23
2018-05-02T23:26:44.619Z,11.19
2018-05-02T23:29:18.580Z,11.18
2018-05-02T23:31:57.094Z,11.14
2018-05-02T23:34:30.996Z,11.04
2018-05-02T23:37:04.811Z,11.00
2018-05-02T23:39:38.799Z,11.02
2018-05-02T23:42:12.644Z,11.00
2018-05-02T23:44:46.534Z,11.02
2018-05-02T23:47:20.575Z,11.04
2018-05-02T23:49:54.213Z,11.06
2018-05-02T23:52:27.868Z,11.09
2018-05-02T23:55:01.502Z,11.04
2018-05-02T23:57:35.065Z,10.95
